AHN - Athens/Ben Epps

Pirep is a free, collaborative database of all public and private airports located within the United States. All pilots are welcome to contribute, edit, and improve any airport they have local knowledge about, no registration required.
Are you familiar with this airport? Help out other pilots by adding your local knowledge.
Uploaded photos will be licensed under a CC BY-SA 4.0 license. Please only upload photos you have the rights to use.
Tags
Public
Undocu­mented
METAR / TAF
Edit Tags
Food
Camping
Lodging
Car Rental
Bicycles
Swimming
Golfing
Fishing
Hot Springs
Museum
Flying Clubs
Airpark
Upcoming Events
No upcoming events. Is anything happening here soon?
*
*
*

Where exactly on/near the airport is this event taking place?

Is there a webpage with more information for this event?

Who should be contacted for more information?

What is this event all about?

Repeat every
Description
Transient Parking
Fuel Location
Landing & Tie-down Fees
Crew Car Availability
Flying Clubs
WiFi Access
Airport Statistics
Location: Athens, GA
Elevation: 812ft
Sectional: Atlanta
Activation date: Jul 1940
Fuel: 100LL, A, A1 (prices)
Runway 09/27: 6,122ft
Runway 02/20: 3,995ft
Access: Open to the public
Current Weather — LIFR
  • Weather data is strictly informational and not for flight planning purposes.
  • METAR
    2024-05-26 06:17:00 EDT
    Ceiling Wind Temperature Dewpoint Weather Visbility
    300ft Calm 66°F 64°F N/A 8SM
    Clouds: Overcast @ 300ft
    Raw: KAHN 261017Z AUTO 00000KT 8SM OVC003 19/18 A2991 RMK AO2 T01940183 $
  • TAF
    2024-05-26 06:00:00 EDT – 2024-05-26 11:00:00 EDT
    Ceiling Wind Weather Visbility
    Sky clear 260° @ 3kt N/A 6SM
    Clouds: Scattered @ 400ft
    Raw: KAHN 261014Z 2610/2706 26003KT P6SM SCT004 TEMPO 2610/2614 1 1/2SM BR OVC004 FM261500 24006KT P6SM SCT035 SCT200 FM270000 VRB03KT P6SM FEW250
  • TAF
    2024-05-26 06:00:00 EDT – 2024-05-26 10:00:00 EDT
    Ceiling Wind Weather Visbility
    400ft ° @ kt Mist 1SM
    Clouds: Overcast @ 400ft
    Raw: KAHN 261014Z 2610/2706 26003KT P6SM SCT004 TEMPO 2610/2614 1 1/2SM BR OVC004 FM261500 24006KT P6SM SCT035 SCT200 FM270000 VRB03KT P6SM FEW250
  • TAF
    2024-05-26 11:00:00 EDT – 2024-05-26 20:00:00 EDT
    Ceiling Wind Weather Visbility
    Sky clear 240° @ 6kt N/A 6SM
    Clouds: Scattered @ 3,500ft, Scattered @ 20,000ft
    Raw: KAHN 261014Z 2610/2706 26003KT P6SM SCT004 TEMPO 2610/2614 1 1/2SM BR OVC004 FM261500 24006KT P6SM SCT035 SCT200 FM270000 VRB03KT P6SM FEW250
  • TAF
    2024-05-26 20:00:00 EDT – 2024-05-27 02:00:00 EDT
    Ceiling Wind Weather Visbility
    Sky clear Variable N/A 6SM
    Clouds: Few @ 25,000ft
    Raw: KAHN 261014Z 2610/2706 26003KT P6SM SCT004 TEMPO 2610/2614 1 1/2SM BR OVC004 FM261500 24006KT P6SM SCT035 SCT200 FM270000 VRB03KT P6SM FEW250
Click/tap to add an annotation marker to the map
Airport Webcams
No webcams added yet.
Direct links to live image URLs will be displayed inline on this page. URLs to separate webpages will be linked to.
URL:
Direct links to live image URLs will be displayed inline on this page. URLs to separate webpages will be linked to.
URL:
Remarks
  • Index b arff eqpt is avbl.
  • Noise sensitive area s of arpt; ctc fbo for information.
  • Rwy 2-20 markings are in poor condition
  • Clsd to unsked acr opns with more than 30 psgr seats excp 24 hrs ppr call amgr 706-613-3420.
  • For cd if una to ctc on fss freq, ctc atlanta apch at 678-364-6131, when atct clsd ctc atlanta artcc at 770-210-7692.
Comments
Leave a comment What was your experience like at this airport?